createdAt,value
2016-12-30T00:00:34.919Z,-2
2016-12-30T00:01:34.899Z,-1.99
2016-12-30T00:02:34.878Z,-2
2016-12-30T00:03:34.866Z,-2.06
2016-12-30T00:04:34.842Z,-2.03
2016-12-30T00:05:34.828Z,-2.06
2016-12-30T00:06:34.811Z,-1.99
2016-12-30T00:07:34.796Z,-1.99
2016-12-30T00:08:34.775Z,-2.02
2016-12-30T00:09:34.753Z,-2.06
2016-12-30T00:10:34.738Z,-1.97
2016-12-30T00:11:34.720Z,-2.03
2016-12-30T00:12:34.701Z,-1.99
2016-12-30T00:13:34.682Z,-2.02
2016-12-30T00:14:34.658Z,-2.02
2016-12-30T00:15:34.646Z,-1.99
2016-12-30T00:16:34.624Z,-1.99
2016-12-30T00:17:34.610Z,-1.94
2016-12-30T00:18:34.587Z,-1.99
2016-12-30T00:19:34.574Z,-1.92
2016-12-30T00:20:34.953Z,-1.94
2016-12-30T00:21:34.538Z,-1.99
2016-12-30T00:22:34.520Z,-1.99
2016-12-30T00:23:34.498Z,-1.92
2016-12-30T00:24:34.484Z,-1.96
2016-12-30T00:25:34.469Z,-1.97
2016-12-30T00:26:34.450Z,-1.97
2016-12-30T00:27:34.427Z,-2.07
2016-12-30T00:28:34.410Z,-1.99
2016-12-30T00:29:34.390Z,-1.99
2016-12-30T00:30:34.368Z,-2.02
2016-12-30T00:31:34.357Z,-2.07
2016-12-30T00:32:34.737Z,-2.05
2016-12-30T00:33:34.319Z,-2.12
2016-12-30T00:34:34.298Z,-2.06
2016-12-30T00:35:34.282Z,-2.06
2016-12-30T00:36:34.259Z,-2
2016-12-30T00:37:34.247Z,-1.99
2016-12-30T00:38:34.223Z,-2.07
2016-12-30T00:39:34.206Z,-2.07
2016-12-30T00:40:34.188Z,-2.1
2016-12-30T00:41:34.173Z,-2.06
2016-12-30T00:42:34.151Z,-2.02
2016-12-30T00:43:34.137Z,-2.06
2016-12-30T00:44:34.115Z,-2.06
2016-12-30T00:45:34.497Z,-2.03
2016-12-30T00:46:34.080Z,-2.03
2016-12-30T00:47:34.064Z,-2.05
2016-12-30T00:48:34.038Z,-2.14
2016-12-30T00:49:34.022Z,-2.14
2016-12-30T00:50:34.005Z,-2.15
2016-12-30T00:51:33.984Z,-2.17
2016-12-30T00:52:33.965Z,-2.09
2016-12-30T00:53:33.947Z,-2.1
2016-12-30T00:54:33.931Z,-2.17
2016-12-30T00:55:33.911Z,-2.1
2016-12-30T00:56:33.895Z,-2.09
2016-12-30T00:57:33.876Z,-2.21
2016-12-30T00:58:33.860Z,-2.18
2016-12-30T00:59:33.840Z,-2.18
2016-12-30T01:00:33.824Z,-2.15
2016-12-30T01:01:33.802Z,-2.21
2016-12-30T01:02:33.784Z,-2.15
2016-12-30T01:03:33.765Z,-2.18
2016-12-30T01:04:33.754Z,-2.24
2016-12-30T01:05:33.728Z,-2.24
2016-12-30T01:06:33.710Z,-2.27
2016-12-30T01:07:33.694Z,-2.21
2016-12-30T01:08:33.674Z,-2.23
2016-12-30T01:09:33.658Z,-2.24
2016-12-30T01:10:33.639Z,-2.2
2016-12-30T01:11:33.617Z,-2.36
2016-12-30T01:12:33.630Z,-2.3
2016-12-30T01:13:33.583Z,-2.37
2016-12-30T01:14:33.563Z,-2.36
2016-12-30T01:15:33.547Z,-2.43
2016-12-30T01:16:33.523Z,-2.43
2016-12-30T01:17:33.511Z,-2.37
2016-12-30T01:18:33.489Z,-2.43
2016-12-30T01:19:33.468Z,-2.39
2016-12-30T01:20:33.454Z,-2.36
2016-12-30T01:21:33.432Z,-2.32
2016-12-30T01:22:33.412Z,-2.46
2016-12-30T01:23:33.400Z,-2.46
2016-12-30T01:24:33.379Z,-2.39
2016-12-30T01:25:33.360Z,-2.37
2016-12-30T01:26:33.371Z,-2.4
2016-12-30T01:27:33.323Z,-2.39
2016-12-30T01:28:33.305Z,-2.36
2016-12-30T01:29:33.287Z,-2.53
2016-12-30T01:30:33.270Z,-2.44
2016-12-30T01:31:33.252Z,-2.46
2016-12-30T01:32:33.231Z,-2.54
2016-12-30T01:33:33.220Z,-2.47
2016-12-30T01:34:33.197Z,-2.46
2016-12-30T01:35:33.174Z,-2.5
2016-12-30T01:36:33.154Z,-2.49
2016-12-30T01:37:33.139Z,-2.49
2016-12-30T01:38:33.120Z,-2.58
2016-12-30T01:39:33.106Z,-2.46
2016-12-30T01:40:33.086Z,-2.57
2016-12-30T01:41:33.066Z,-2.47
2016-12-30T01:42:33.048Z,-2.5
2016-12-30T01:43:33.031Z,-2.47
2016-12-30T01:44:33.014Z,-2.6
2016-12-30T01:45:32.995Z,-2.62
2016-12-30T01:46:32.971Z,-2.62
2016-12-30T01:47:32.953Z,-2.6
2016-12-30T01:48:32.938Z,-2.68
2016-12-30T01:49:32.919Z,-2.67
2016-12-30T01:50:32.902Z,-2.49
2016-12-30T01:51:32.882Z,-2.5
2016-12-30T01:52:32.864Z,-2.57
2016-12-30T01:53:32.844Z,-2.58
2016-12-30T01:54:32.822Z,-2.57
2016-12-30T01:55:32.810Z,-2.53
2016-12-30T01:56:32.787Z,-2.46
2016-12-30T01:57:32.770Z,-2.46
2016-12-30T01:58:32.756Z,-2.54
2016-12-30T01:59:32.732Z,-2.58
2016-12-30T02:00:32.717Z,-2.5
2016-12-30T02:01:32.694Z,-2.46
2016-12-30T02:02:32.679Z,-2.46
2016-12-30T02:03:32.660Z,-2.5
2016-12-30T02:04:32.640Z,-2.42
2016-12-30T02:05:32.619Z,-2.49
2016-12-30T02:06:32.602Z,-2.47
2016-12-30T02:07:32.586Z,-2.47
2016-12-30T02:08:32.568Z,-2.46
2016-12-30T02:09:32.544Z,-2.54
2016-12-30T02:10:32.531Z,-2.57
2016-12-30T02:11:32.507Z,-2.61
2016-12-30T02:12:32.494Z,-2.65
2016-12-30T02:13:32.474Z,-2.68
2016-12-30T02:14:32.455Z,-2.62
2016-12-30T02:15:32.436Z,-2.79
2016-12-30T02:16:32.416Z,-2.65
2016-12-30T02:17:32.400Z,-2.5
2016-12-30T02:18:32.381Z,-2.46
2016-12-30T02:19:32.362Z,-2.43
2016-12-30T02:20:32.341Z,-2.39
2016-12-30T02:21:32.327Z,-2.37
2016-12-30T02:22:32.302Z,-2.4
2016-12-30T02:23:32.285Z,-2.37
2016-12-30T02:24:32.269Z,-2.43
2016-12-30T02:25:32.247Z,-2.36
2016-12-30T02:26:32.229Z,-2.4
2016-12-30T02:27:32.213Z,-2.44
2016-12-30T02:28:32.195Z,-2.42
2016-12-30T02:29:32.176Z,-2.43
2016-12-30T02:30:32.154Z,-2.42
2016-12-30T02:31:32.137Z,-2.46
2016-12-30T02:32:32.117Z,-2.34
2016-12-30T02:33:32.100Z,-2.46
2016-12-30T02:34:32.078Z,-2.36
2016-12-30T02:35:32.062Z,-2.37
2016-12-30T02:36:32.043Z,-2.53
2016-12-30T02:37:32.022Z,-2.46
2016-12-30T02:38:32.003Z,-2.44
2016-12-30T02:39:31.986Z,-2.37
2016-12-30T02:40:31.966Z,-2.49
2016-12-30T02:41:31.946Z,-2.5
2016-12-30T02:42:31.935Z,-2.49
2016-12-30T02:43:31.910Z,-2.47
2016-12-30T02:44:31.891Z,-2.46
2016-12-30T02:45:31.877Z,-2.46
2016-12-30T02:46:31.854Z,-2.5
2016-12-30T02:47:31.837Z,-2.46
2016-12-30T02:48:31.814Z,-2.5
2016-12-30T02:49:31.801Z,-2.55
2016-12-30T02:50:31.790Z,-2.42
2016-12-30T02:51:31.760Z,-2.42
2016-12-30T02:52:31.745Z,-2.5
2016-12-30T02:53:31.724Z,-2.47
2016-12-30T02:54:31.732Z,-2.5
2016-12-30T02:55:31.689Z,-2.47
2016-12-30T02:56:31.664Z,-2.5
2016-12-30T02:57:31.657Z,-2.5
2016-12-30T02:58:31.631Z,-2.49
2016-12-30T02:59:31.612Z,-2.5
2016-12-30T03:00:31.599Z,-2.47
2016-12-30T03:01:31.573Z,-2.5
2016-12-30T03:02:31.558Z,-2.61
2016-12-30T03:03:31.538Z,-2.53
2016-12-30T03:04:31.517Z,-2.6
2016-12-30T03:05:31.500Z,-2.61
2016-12-30T03:06:31.482Z,-2.6
2016-12-30T03:07:31.463Z,-2.61
2016-12-30T03:08:31.443Z,-2.64
2016-12-30T03:09:31.425Z,-2.67
2016-12-30T03:10:31.432Z,-2.78
2016-12-30T03:11:31.391Z,-2.72
2016-12-30T03:12:31.371Z,-2.78
2016-12-30T03:13:31.360Z,-2.73
2016-12-30T03:14:31.334Z,-2.7
2016-12-30T03:15:31.316Z,-2.65
2016-12-30T03:16:31.292Z,-2.65
2016-12-30T03:17:31.277Z,-2.75
2016-12-30T03:18:31.257Z,-2.78
2016-12-30T03:19:31.243Z,-2.75
2016-12-30T03:20:31.224Z,-2.72
2016-12-30T03:21:31.199Z,-2.78
2016-12-30T03:22:31.184Z,-2.83
2016-12-30T03:23:31.166Z,-2.82
2016-12-30T03:24:31.150Z,-2.85
2016-12-30T03:25:31.126Z,-2.75
2016-12-30T03:26:31.108Z,-2.82
2016-12-30T03:27:31.089Z,-2.76
2016-12-30T03:28:31.066Z,-2.81
2016-12-30T03:29:31.051Z,-2.78
2016-12-30T03:30:31.035Z,-2.73
2016-12-30T03:31:31.016Z,-2.86
2016-12-30T03:32:30.995Z,-2.78
2016-12-30T03:33:30.978Z,-2.9
2016-12-30T03:34:30.960Z,-2.94
2016-12-30T03:35:30.941Z,-2.96
2016-12-30T03:36:30.923Z,-2.91
2016-12-30T03:37:30.903Z,-2.91
2016-12-30T03:38:30.885Z,-3
2016-12-30T03:39:30.867Z,-2.96
2016-12-30T03:40:30.848Z,-2.97
2016-12-30T03:41:30.832Z,-3.06
2016-12-30T03:42:30.808Z,-3.01
2016-12-30T03:43:30.789Z,-2.97
2016-12-30T03:44:30.772Z,-3.12
2016-12-30T03:45:30.752Z,-3.07
2016-12-30T03:46:30.731Z,-3.18
2016-12-30T03:47:30.711Z,-3.12
2016-12-30T03:48:31.093Z,-3.14
2016-12-30T03:49:30.677Z,-3.11
2016-12-30T03:50:30.661Z,-3.15
2016-12-30T03:51:30.638Z,-3.14
2016-12-30T03:52:30.623Z,-3.12
2016-12-30T03:53:30.603Z,-3.09
2016-12-30T03:54:30.579Z,-3.12
2016-12-30T03:55:30.565Z,-3.06
2016-12-30T03:56:30.545Z,-3.03
2016-12-30T03:57:30.528Z,-3.14
2016-12-30T03:58:30.505Z,-3.14
2016-12-30T03:59:30.488Z,-3.19
2016-12-30T04:00:30.474Z,-3.12
2016-12-30T04:01:30.447Z,-3.12
2016-12-30T04:02:30.429Z,-3.24
2016-12-30T04:03:30.415Z,-3.15
2016-12-30T04:04:30.393Z,-3.15
2016-12-30T04:05:30.375Z,-3.19
2016-12-30T04:06:30.356Z,-3.24
2016-12-30T04:07:30.338Z,-3.22
2016-12-30T04:08:30.320Z,-3.19
2016-12-30T04:09:30.300Z,-3.18
2016-12-30T04:10:30.283Z,-3.19
2016-12-30T04:11:30.260Z,-3.14
2016-12-30T04:12:30.245Z,-3.17
2016-12-30T04:13:30.221Z,-3.15
2016-12-30T04:14:30.205Z,-3.19
2016-12-30T04:15:30.189Z,-3.18
2016-12-30T04:16:30.168Z,-3.18
2016-12-30T04:17:30.181Z,-3.18
2016-12-30T04:18:30.131Z,-3.21
2016-12-30T04:19:30.113Z,-3.33
2016-12-30T04:20:30.089Z,-3.3
2016-12-30T04:21:30.074Z,-3.36
2016-12-30T04:22:30.052Z,-3.38
2016-12-30T04:23:30.033Z,-3.33
2016-12-30T04:24:30.013Z,-3.36
2016-12-30T04:25:29.999Z,-3.32
2016-12-30T04:26:29.975Z,-3.33
2016-12-30T04:27:29.959Z,-3.36
2016-12-30T04:28:29.942Z,-3.36
2016-12-30T04:29:29.920Z,-3.4
2016-12-30T04:30:29.903Z,-3.4
2016-12-30T04:31:29.881Z,-3.42
2016-12-30T04:32:29.867Z,-3.45
2016-12-30T04:33:29.842Z,-3.43
2016-12-30T04:34:29.824Z,-3.43
2016-12-30T04:35:29.804Z,-3.42
2016-12-30T04:36:29.792Z,-3.42
2016-12-30T04:37:29.784Z,-3.42
2016-12-30T04:38:29.751Z,-3.42
2016-12-30T04:39:29.727Z,-3.53
2016-12-30T04:40:29.713Z,-3.45
2016-12-30T04:41:29.690Z,-3.42
2016-12-30T04:42:29.701Z,-3.5
2016-12-30T04:43:29.653Z,-3.53
2016-12-30T04:44:29.634Z,-3.54
2016-12-30T04:45:29.617Z,-3.5
2016-12-30T04:46:29.594Z,-3.51
2016-12-30T04:47:29.577Z,-3.56
2016-12-30T04:48:29.558Z,-3.53
2016-12-30T04:49:29.537Z,-3.51
2016-12-30T04:50:29.520Z,-3.58
2016-12-30T04:51:29.503Z,-3.66
2016-12-30T04:52:29.882Z,-3.63
2016-12-30T04:53:29.469Z,-3.57
2016-12-30T04:54:29.444Z,-3.69
2016-12-30T04:55:29.427Z,-3.68
2016-12-30T04:56:29.406Z,-3.68
2016-12-30T04:57:29.385Z,-3.68
2016-12-30T04:58:29.366Z,-3.63
2016-12-30T04:59:29.353Z,-3.69
2016-12-30T05:00:29.329Z,-3.57
2016-12-30T05:01:29.311Z,-3.53
2016-12-30T05:02:29.290Z,-3.58
2016-12-30T05:03:29.273Z,-3.61
2016-12-30T05:04:29.262Z,-3.57
2016-12-30T05:05:29.233Z,-3.6
2016-12-30T05:06:29.213Z,-3.65
2016-12-30T05:07:29.194Z,-3.69
2016-12-30T05:08:29.175Z,-3.65
2016-12-30T05:09:29.159Z,-3.77
2016-12-30T05:10:29.138Z,-3.66
2016-12-30T05:11:29.131Z,-3.69
2016-12-30T05:12:29.098Z,-3.71
2016-12-30T05:13:29.086Z,-3.79
2016-12-30T05:14:29.062Z,-3.83
2016-12-30T05:15:29.043Z,-3.87
2016-12-30T05:16:29.023Z,-3.83
2016-12-30T05:17:29.012Z,-3.83
2016-12-30T05:18:28.983Z,-3.83
2016-12-30T05:19:28.967Z,-3.79
2016-12-30T05:20:28.950Z,-3.8
2016-12-30T05:21:28.925Z,-3.83
2016-12-30T05:22:28.907Z,-3.8
2016-12-30T05:23:28.902Z,-3.83
2016-12-30T05:24:28.866Z,-3.86
2016-12-30T05:25:28.848Z,-3.83
2016-12-30T05:26:28.830Z,-3.87
2016-12-30T05:27:28.812Z,-3.88
2016-12-30T05:28:28.792Z,-3.88
2016-12-30T05:29:28.772Z,-3.97
2016-12-30T05:30:28.752Z,-3.91
2016-12-30T05:31:28.732Z,-3.96
2016-12-30T05:32:28.714Z,-3.94
2016-12-30T05:33:28.696Z,-3.9
2016-12-30T05:34:28.674Z,-3.86
2016-12-30T05:35:28.657Z,-3.8
2016-12-30T05:36:28.639Z,-3.8
2016-12-30T05:37:28.617Z,-3.8
2016-12-30T05:38:28.606Z,-3.87
2016-12-30T05:39:28.582Z,-3.76
2016-12-30T05:40:28.564Z,-3.82
2016-12-30T05:41:28.541Z,-3.75
2016-12-30T05:42:28.525Z,-3.79
2016-12-30T05:43:28.506Z,-3.75
2016-12-30T05:44:28.485Z,-3.82
2016-12-30T05:45:28.464Z,-3.79
2016-12-30T05:46:28.443Z,-3.77
2016-12-30T05:47:28.424Z,-3.76
2016-12-30T05:48:28.405Z,-3.68
2016-12-30T05:49:28.389Z,-3.69
2016-12-30T05:50:28.367Z,-3.76
2016-12-30T05:51:28.349Z,-3.57
2016-12-30T05:52:28.329Z,-3.57
2016-12-30T05:53:28.310Z,-3.57
2016-12-30T05:54:28.290Z,-3.53
2016-12-30T05:55:28.273Z,-3.6
2016-12-30T05:56:28.253Z,-3.66
2016-12-30T05:57:28.233Z,-3.6
2016-12-30T05:58:28.209Z,-3.6
2016-12-30T05:59:28.193Z,-3.54
2016-12-30T06:00:28.175Z,-3.54
2016-12-30T06:01:28.156Z,-3.5
2016-12-30T06:02:28.134Z,-3.5
2016-12-30T06:03:28.116Z,-3.5
2016-12-30T06:04:28.100Z,-3.5
2016-12-30T06:05:28.076Z,-3.53
2016-12-30T06:06:28.062Z,-3.45
2016-12-30T06:07:28.042Z,-3.36
2016-12-30T06:08:28.020Z,-3.38
2016-12-30T06:09:28.000Z,-3.4
2016-12-30T06:10:27.981Z,-3.4
2016-12-30T06:11:27.963Z,-3.42
2016-12-30T06:12:27.946Z,-3.35
2016-12-30T06:13:27.923Z,-3.36
2016-12-30T06:14:27.904Z,-3.35
2016-12-30T06:15:27.889Z,-3.42
2016-12-30T06:16:27.864Z,-3.4
2016-12-30T06:17:27.851Z,-3.38
2016-12-30T06:18:27.829Z,-3.43
2016-12-30T06:19:27.854Z,-3.42
2016-12-30T06:20:27.796Z,-3.42
2016-12-30T06:21:27.771Z,-3.36
2016-12-30T06:22:27.751Z,-3.36
2016-12-30T06:23:27.733Z,-3.42
2016-12-30T06:24:27.715Z,-3.36
2016-12-30T06:25:27.696Z,-3.42
2016-12-30T06:26:27.673Z,-3.38
2016-12-30T06:27:27.657Z,-3.43
2016-12-30T06:28:27.639Z,-3.42
2016-12-30T06:29:27.619Z,-3.45
2016-12-30T06:30:27.599Z,-3.39
2016-12-30T06:31:27.575Z,-3.45
2016-12-30T06:32:27.559Z,-3.36
2016-12-30T06:33:27.548Z,-3.36
2016-12-30T06:34:27.521Z,-3.32
2016-12-30T06:35:27.504Z,-3.29
2016-12-30T06:36:27.482Z,-3.29
2016-12-30T06:37:27.464Z,-3.32
2016-12-30T06:38:27.441Z,-3.28
2016-12-30T06:39:27.430Z,-3.33
2016-12-30T06:40:27.405Z,-3.32
2016-12-30T06:41:27.386Z,-3.3
2016-12-30T06:42:27.364Z,-3.35
2016-12-30T06:43:27.356Z,-3.33
2016-12-30T06:44:27.332Z,-3.39
2016-12-30T06:45:27.709Z,-3.32
2016-12-30T06:46:27.293Z,-3.33
2016-12-30T06:47:27.277Z,-3.29
2016-12-30T06:48:27.253Z,-3.33
2016-12-30T06:49:27.241Z,-3.3
2016-12-30T06:50:27.216Z,-3.25
2016-12-30T06:51:27.200Z,-3.17
2016-12-30T06:52:27.173Z,-3.18
2016-12-30T06:53:27.164Z,-3.21
2016-12-30T06:54:27.136Z,-3.19
2016-12-30T06:55:27.119Z,-3.22
2016-12-30T06:56:27.097Z,-3.28
2016-12-30T06:57:27.093Z,-3.22
2016-12-30T06:58:27.063Z,-3.22
2016-12-30T06:59:27.046Z,-3.24
2016-12-30T07:00:27.024Z,-3.22
2016-12-30T07:01:27.005Z,-3.28
2016-12-30T07:02:26.987Z,-3.25
2016-12-30T07:03:26.963Z,-3.18
2016-12-30T07:04:26.944Z,-3.25
2016-12-30T07:05:26.927Z,-3.24
2016-12-30T07:06:26.905Z,-3.3
2016-12-30T07:07:26.892Z,-3.29
2016-12-30T07:08:26.869Z,-3.32
2016-12-30T07:09:26.849Z,-3.35
2016-12-30T07:10:26.833Z,-3.33
2016-12-30T07:11:26.815Z,-3.3
2016-12-30T07:12:26.796Z,-3.32
2016-12-30T07:13:26.783Z,-3.32
2016-12-30T07:14:26.782Z,-3.25
2016-12-30T07:15:26.757Z,-3.29
2016-12-30T07:16:26.716Z,-3.3
2016-12-30T07:17:26.696Z,-3.3
2016-12-30T07:18:26.680Z,-3.3
2016-12-30T07:19:26.662Z,-3.3
2016-12-30T07:20:26.638Z,-3.32
2016-12-30T07:21:26.619Z,-3.32
2016-12-30T07:22:26.606Z,-3.3
2016-12-30T07:23:26.591Z,-3.24
2016-12-30T07:24:26.562Z,-3.28
2016-12-30T07:25:26.547Z,-3.29
2016-12-30T07:26:26.525Z,-3.32
2016-12-30T07:27:26.505Z,-3.29
2016-12-30T07:28:26.486Z,-3.36
2016-12-30T07:29:26.467Z,-3.28
2016-12-30T07:30:26.449Z,-3.3
2016-12-30T07:31:26.436Z,-3.3
2016-12-30T07:32:26.410Z,-3.19
2016-12-30T07:33:26.395Z,-3.28
2016-12-30T07:34:26.372Z,-3.3
2016-12-30T07:35:26.352Z,-3.3
2016-12-30T07:36:26.336Z,-3.19
2016-12-30T07:37:26.319Z,-3.19
2016-12-30T07:38:26.299Z,-3.24
2016-12-30T07:39:26.276Z,-3.25
2016-12-30T07:40:26.256Z,-3.21
2016-12-30T07:41:26.242Z,-3.15
2016-12-30T07:42:26.219Z,-3.21
2016-12-30T07:43:26.201Z,-3.24
2016-12-30T07:44:26.179Z,-3.15
2016-12-30T07:45:26.165Z,-3.22
2016-12-30T07:46:26.169Z,-3.19
2016-12-30T07:47:26.125Z,-3.18
2016-12-30T07:48:26.107Z,-3.14
2016-12-30T07:49:26.091Z,-3.15
2016-12-30T07:50:26.075Z,-3.17
2016-12-30T07:51:26.049Z,-3.17
2016-12-30T07:52:26.029Z,-3.18
2016-12-30T07:53:26.012Z,-3.14
2016-12-30T07:54:25.990Z,-3.09
2016-12-30T07:55:25.970Z,-3.09
2016-12-30T07:56:25.952Z,-3.06
2016-12-30T07:57:25.935Z,-3.09
2016-12-30T07:58:25.914Z,-3.12
2016-12-30T07:59:25.897Z,-3.06
2016-12-30T08:00:25.875Z,-2.97
2016-12-30T08:01:25.861Z,-3.04
2016-12-30T08:02:25.839Z,-3.06
2016-12-30T08:03:25.849Z,-3.03
2016-12-30T08:04:25.801Z,-3.09
2016-12-30T08:05:25.783Z,-3
2016-12-30T08:06:25.764Z,-3.15
2016-12-30T08:07:25.744Z,-3.06
2016-12-30T08:08:25.726Z,-3.09
2016-12-30T08:09:25.704Z,-3.04
2016-12-30T08:10:25.686Z,-3.04
2016-12-30T08:11:25.666Z,-3.04
2016-12-30T08:12:25.649Z,-3.04
2016-12-30T08:13:25.630Z,-2.94
2016-12-30T08:14:25.611Z,-3.06
2016-12-30T08:15:25.592Z,-2.97
2016-12-30T08:16:25.572Z,-2.97
2016-12-30T08:17:25.552Z,-2.99
2016-12-30T08:18:25.563Z,-2.99
2016-12-30T08:19:25.515Z,-3
2016-12-30T08:20:25.499Z,-2.96
2016-12-30T08:21:25.479Z,-2.96
2016-12-30T08:22:25.460Z,-3.03
2016-12-30T08:23:25.439Z,-2.97
2016-12-30T08:24:25.419Z,-2.94
2016-12-30T08:25:25.401Z,-3
2016-12-30T08:26:25.386Z,-2.91
2016-12-30T08:27:25.366Z,-2.93
2016-12-30T08:28:25.346Z,-2.9
2016-12-30T08:29:25.324Z,-2.86
2016-12-30T08:30:25.306Z,-2.85
2016-12-30T08:31:25.287Z,-2.81
2016-12-30T08:32:25.270Z,-2.79
2016-12-30T08:33:25.281Z,-2.86
2016-12-30T08:34:25.230Z,-2.73
2016-12-30T08:35:25.215Z,-2.72
2016-12-30T08:36:25.194Z,-2.81
2016-12-30T08:37:25.177Z,-2.62
2016-12-30T08:38:25.157Z,-2.58
2016-12-30T08:39:25.139Z,-2.61
2016-12-30T08:40:25.115Z,-2.54
2016-12-30T08:41:25.101Z,-2.47
2016-12-30T08:42:25.083Z,-2.5
2016-12-30T08:43:25.061Z,-2.47
2016-12-30T08:44:25.074Z,-2.54
2016-12-30T08:45:25.024Z,-2.4
2016-12-30T08:46:25.004Z,-2.42
2016-12-30T08:47:25.015Z,-2.4
2016-12-30T08:48:24.970Z,-2.39
2016-12-30T08:49:24.949Z,-2.44
2016-12-30T08:50:24.930Z,-2.37
2016-12-30T08:51:24.912Z,-2.27
2016-12-30T08:52:24.892Z,-2.4
2016-12-30T08:53:24.881Z,-2.34
2016-12-30T08:54:24.853Z,-2.28
2016-12-30T08:55:24.836Z,-2.15
2016-12-30T08:56:24.819Z,-2.18
2016-12-30T08:57:24.800Z,-2.12
2016-12-30T08:58:24.781Z,-2.1
2016-12-30T08:59:24.762Z,-2.17
2016-12-30T09:00:24.743Z,-2.03
2016-12-30T09:01:24.723Z,-2.07
2016-12-30T09:02:25.104Z,-1.96
2016-12-30T09:03:24.687Z,-1.92
2016-12-30T09:04:24.672Z,-2.03
2016-12-30T09:05:24.654Z,-2
2016-12-30T09:06:24.631Z,-1.96
2016-12-30T09:07:24.620Z,-1.96
2016-12-30T09:08:24.599Z,-1.97
2016-12-30T09:09:25.238Z,-1.85
2016-12-30T09:10:24.635Z,-1.99
2016-12-30T09:11:24.539Z,-1.91
2016-12-30T09:12:24.523Z,-1.85
2016-12-30T09:13:24.507Z,-1.84
2016-12-30T09:14:24.486Z,-1.85
2016-12-30T09:15:24.466Z,-1.82
2016-12-30T09:16:25.234Z,-1.68
2016-12-30T09:17:24.779Z,-1.68
2016-12-30T09:18:24.414Z,-1.68
2016-12-30T09:19:24.533Z,-1.55
2016-12-30T09:20:24.374Z,-1.55
2016-12-30T09:21:24.362Z,-1.63
2016-12-30T09:22:24.339Z,-1.52
2016-12-30T09:23:24.321Z,-1.46
2016-12-30T09:24:24.303Z,-1.52
2016-12-30T09:25:24.284Z,-1.52
2016-12-30T09:26:24.318Z,-1.49
2016-12-30T09:27:24.268Z,-1.37
2016-12-30T09:28:24.231Z,-1.37
2016-12-30T09:29:24.214Z,-1.31
2016-12-30T09:30:24.190Z,-1.31
2016-12-30T09:31:24.178Z,-1.27
2016-12-30T09:32:24.160Z,-1.21
2016-12-30T09:33:24.136Z,-1.14
2016-12-30T09:34:24.122Z,-1.13
2016-12-30T09:35:24.502Z,-1.16
2016-12-30T09:36:24.084Z,-0.98
2016-12-30T09:37:24.068Z,-1.04
2016-12-30T09:38:24.051Z,-1.07
2016-12-30T09:39:24.031Z,-1.07
2016-12-30T09:40:24.014Z,-1.06
2016-12-30T09:41:23.998Z,-1.01
2016-12-30T09:42:23.981Z,-0.96
2016-12-30T09:43:23.970Z,-0.85
2016-12-30T09:44:23.944Z,-0.84
2016-12-30T09:45:23.924Z,-0.96
2016-12-30T09:46:23.905Z,-0.84
2016-12-30T09:47:23.889Z,-0.76
2016-12-30T09:48:23.874Z,-0.7
2016-12-30T09:49:23.858Z,-0.72
2016-12-30T09:50:23.833Z,-0.73
2016-12-30T09:51:23.816Z,-0.72
2016-12-30T09:52:23.830Z,-0.64
2016-12-30T09:53:23.782Z,-0.66
2016-12-30T09:54:23.764Z,-0.69
2016-12-30T09:55:23.748Z,-0.7
2016-12-30T09:56:23.728Z,-0.58
2016-12-30T09:57:23.711Z,-0.56
2016-12-30T09:58:23.697Z,-0.55
2016-12-30T09:59:23.674Z,-0.58
2016-12-30T10:00:23.658Z,-0.45
2016-12-30T10:01:23.641Z,-0.43
2016-12-30T10:02:23.623Z,-0.41
2016-12-30T10:03:23.603Z,-0.38
2016-12-30T10:04:23.588Z,-0.38
2016-12-30T10:05:23.800Z,-0.37
2016-12-30T10:06:23.616Z,-0.38
2016-12-30T10:07:23.535Z,-0.27
2016-12-30T10:08:23.522Z,-0.27
2016-12-30T10:09:23.498Z,-0.28
2016-12-30T10:10:23.550Z,-0.27
2016-12-30T10:11:23.464Z,-0.2
2016-12-30T10:12:23.451Z,-0.15
2016-12-30T10:13:23.429Z,-0.1
2016-12-30T10:14:23.479Z,-0.19
2016-12-30T10:15:23.400Z,-0.09
2016-12-30T10:16:23.375Z,-0.13
2016-12-30T10:17:23.359Z,-0.05
2016-12-30T10:18:23.342Z,0.01
2016-12-30T10:19:23.325Z,-0.01
2016-12-30T10:20:23.306Z,0.03
2016-12-30T10:21:23.293Z,0.01
2016-12-30T10:22:23.276Z,-0.02
2016-12-30T10:23:23.257Z,0.03
2016-12-30T10:24:23.240Z,0.1
2016-12-30T10:25:23.221Z,0.02
2016-12-30T10:26:23.207Z,0.05
2016-12-30T10:27:23.186Z,0.1
2016-12-30T10:28:23.169Z,0.1
2016-12-30T10:29:23.151Z,0.17
2016-12-30T10:30:23.136Z,0.21
2016-12-30T10:31:23.114Z,0.41
2016-12-30T10:32:23.102Z,0.41
2016-12-30T10:33:23.081Z,0.44
2016-12-30T10:34:23.064Z,0.47
2016-12-30T10:35:23.053Z,0.47
2016-12-30T10:36:23.029Z,0.58
2016-12-30T10:37:23.012Z,0.52
2016-12-30T10:38:23.000Z,0.5
2016-12-30T10:39:22.979Z,0.61
2016-12-30T10:40:22.963Z,0.71
2016-12-30T10:41:22.944Z,0.71
2016-12-30T10:42:22.932Z,0.84
2016-12-30T10:43:23.310Z,0.79
2016-12-30T10:44:22.892Z,0.76
2016-12-30T10:45:22.877Z,0.84
2016-12-30T10:46:22.860Z,0.92
2016-12-30T10:47:22.857Z,0.85
2016-12-30T10:48:23.229Z,0.94
2016-12-30T10:49:22.809Z,0.86
2016-12-30T10:50:22.793Z,0.94
2016-12-30T10:51:22.774Z,0.93
2016-12-30T10:52:22.756Z,1
2016-12-30T10:53:22.741Z,1.04
2016-12-30T10:54:22.725Z,1.1
2016-12-30T10:55:22.708Z,1.11
2016-12-30T10:56:23.086Z,1.11
2016-12-30T10:57:22.679Z,1.11
2016-12-30T10:58:22.660Z,1.12
2016-12-30T10:59:22.640Z,1.17
2016-12-30T11:00:22.631Z,1.18
2016-12-30T11:01:22.604Z,1.22
2016-12-30T11:02:22.590Z,1.21
2016-12-30T11:03:22.572Z,1.24
2016-12-30T11:04:22.557Z,1.24
2016-12-30T11:05:22.541Z,1.17
2016-12-30T11:06:22.523Z,1.3
2016-12-30T11:07:22.505Z,1.28
2016-12-30T11:08:22.494Z,1.39
2016-12-30T11:09:22.473Z,1.39
2016-12-30T11:10:22.463Z,1.35
2016-12-30T11:11:22.838Z,1.4
2016-12-30T11:12:22.427Z,1.58
2016-12-30T11:13:22.406Z,1.46
2016-12-30T11:14:22.399Z,1.46
2016-12-30T11:15:22.377Z,1.44
2016-12-30T11:16:22.357Z,1.47
2016-12-30T11:17:22.339Z,1.57
2016-12-30T11:18:22.325Z,1.5
2016-12-30T11:19:22.305Z,1.53
2016-12-30T11:20:22.291Z,1.53
2016-12-30T11:21:22.276Z,1.58
2016-12-30T11:22:22.256Z,1.66
2016-12-30T11:23:22.243Z,1.64
2016-12-30T11:24:22.226Z,1.58
2016-12-30T11:25:22.207Z,1.56
2016-12-30T11:26:22.199Z,1.72
2016-12-30T11:27:22.176Z,1.56
2016-12-30T11:28:22.159Z,1.64
2016-12-30T11:29:22.143Z,1.68
2016-12-30T11:30:22.128Z,1.61
2016-12-30T11:31:22.111Z,1.65
2016-12-30T11:32:22.094Z,1.58
2016-12-30T11:33:22.077Z,1.64
2016-12-30T11:34:22.084Z,1.64
2016-12-30T11:35:22.043Z,1.66
2016-12-30T11:36:22.032Z,1.56
2016-12-30T11:37:22.011Z,1.72
2016-12-30T11:38:21.996Z,1.78
2016-12-30T11:39:21.978Z,1.72
2016-12-30T11:40:21.964Z,1.79
2016-12-30T11:41:21.948Z,1.78
2016-12-30T11:42:21.927Z,1.71
2016-12-30T11:43:21.914Z,1.69
2016-12-30T11:44:21.897Z,1.68
2016-12-30T11:45:21.879Z,1.72
2016-12-30T11:46:21.864Z,1.72
2016-12-30T11:47:21.851Z,1.72
2016-12-30T11:48:21.869Z,1.71
2016-12-30T11:49:21.816Z,1.79
2016-12-30T11:50:21.798Z,1.82
2016-12-30T11:51:21.787Z,1.83
2016-12-30T11:52:21.766Z,1.83
2016-12-30T11:53:21.778Z,1.82
2016-12-30T11:54:21.735Z,1.94
2016-12-30T11:55:21.715Z,1.9
2016-12-30T11:56:21.699Z,1.98
2016-12-30T11:57:21.685Z,1.97
2016-12-30T11:58:21.674Z,1.94
2016-12-30T11:59:21.654Z,2.02
2016-12-30T12:00:21.641Z,2.09
2016-12-30T12:01:21.619Z,2.06
2016-12-30T12:02:21.603Z,2.05
2016-12-30T12:03:21.588Z,2.09
2016-12-30T12:04:21.573Z,2.08
2016-12-30T12:05:21.557Z,2.15
2016-12-30T12:06:21.537Z,2.12
2016-12-30T12:07:21.526Z,2.16
2016-12-30T12:08:21.507Z,2.11
2016-12-30T12:09:21.492Z,2.12
2016-12-30T12:10:21.475Z,2.23
2016-12-30T12:11:21.461Z,2.2
2016-12-30T12:12:21.444Z,2.27
2016-12-30T12:13:21.430Z,2.22
2016-12-30T12:14:21.412Z,2.18
2016-12-30T12:15:21.393Z,2.29
2016-12-30T12:16:21.380Z,2.26
2016-12-30T12:17:21.364Z,2.24
2016-12-30T12:18:21.348Z,2.22
2016-12-30T12:19:21.331Z,2.27
2016-12-30T12:20:21.345Z,2.15
2016-12-30T12:21:21.307Z,2.26
2016-12-30T12:22:21.283Z,2.31
2016-12-30T12:23:21.270Z,2.33
2016-12-30T12:24:21.253Z,2.33
2016-12-30T12:25:21.235Z,2.34
2016-12-30T12:26:21.221Z,2.42
2016-12-30T12:27:21.205Z,2.36
2016-12-30T12:28:21.192Z,2.36
2016-12-30T12:29:21.176Z,2.42
2016-12-30T12:30:21.158Z,2.34
2016-12-30T12:31:21.153Z,2.36
2016-12-30T12:32:21.128Z,2.29
2016-12-30T12:33:21.109Z,2.3
2016-12-30T12:34:21.118Z,2.34
2016-12-30T12:35:21.077Z,2.3
2016-12-30T12:36:21.065Z,2.38
2016-12-30T12:37:21.049Z,2.4
2016-12-30T12:38:21.038Z,2.49
2016-12-30T12:39:21.019Z,2.44
2016-12-30T12:40:20.999Z,2.52
2016-12-30T12:41:20.986Z,2.54
2016-12-30T12:42:20.968Z,2.54
2016-12-30T12:43:20.956Z,2.51
2016-12-30T12:44:20.939Z,2.58
2016-12-30T12:45:20.925Z,2.51
2016-12-30T12:46:20.910Z,2.59
2016-12-30T12:47:20.892Z,2.59
2016-12-30T12:48:20.876Z,2.52
2016-12-30T12:49:20.863Z,2.58
2016-12-30T12:50:20.849Z,2.49
2016-12-30T12:51:20.830Z,2.51
2016-12-30T12:52:20.815Z,2.48
2016-12-30T12:53:20.821Z,2.33
2016-12-30T12:54:20.784Z,2.44
2016-12-30T12:55:20.770Z,2.34
2016-12-30T12:56:20.750Z,2.49
2016-12-30T12:57:20.734Z,2.44
2016-12-30T12:58:20.721Z,2.41
2016-12-30T12:59:20.705Z,2.48
2016-12-30T13:00:21.162Z,2.47
2016-12-30T13:01:21.021Z,2.38